createdAt,value
2018-01-21T00:01:02.958Z,4.45
2018-01-21T00:03:31.799Z,4.22
2018-01-21T00:06:00.676Z,4.37
2018-01-21T00:08:29.618Z,4.65
2018-01-21T00:10:58.467Z,4.53
2018-01-21T00:13:27.362Z,6.22
2018-01-21T00:15:57.171Z,4.97
2018-01-21T00:18:26.026Z,4.68
2018-01-21T00:20:54.956Z,4.85
2018-01-21T00:23:25.024Z,4.85
2018-01-21T00:25:53.901Z,5.20
2018-01-21T00:28:22.737Z,6.28
2018-01-21T00:30:52.674Z,6.53
2018-01-21T00:33:21.506Z,6.20
2018-01-21T00:35:50.374Z,5.43
2018-01-21T00:38:19.331Z,6.62
2018-01-21T00:40:48.149Z,6.50
2018-01-21T00:43:17.151Z,5.30
2018-01-21T00:45:46.061Z,6.18
2018-01-21T00:48:14.962Z,5.40
2018-01-21T00:50:43.796Z,4.97
2018-01-21T00:53:14.465Z,4.70
2018-01-21T00:55:43.340Z,6.00
2018-01-21T00:58:12.264Z,5.53
2018-01-21T01:00:41.222Z,5.97
2018-01-21T01:03:10.157Z,5.45
2018-01-21T01:05:39.007Z,5.62
2018-01-21T01:08:10.490Z,6.22
2018-01-21T01:10:39.532Z,5.60
2018-01-21T01:13:08.423Z,5.55
2018-01-21T01:15:37.434Z,6.05
2018-01-21T01:18:06.411Z,7.00
2018-01-21T01:20:35.287Z,8.38
2018-01-21T01:23:09.959Z,7.45
2018-01-21T01:25:38.940Z,7.93
2018-01-21T01:28:07.847Z,7.50
2018-01-21T01:30:36.787Z,8.50
2018-01-21T01:33:05.682Z,7.55
2018-01-21T01:35:34.672Z,6.28
2018-01-21T01:38:03.656Z,4.85
2018-01-21T01:40:32.542Z,4.50
2018-01-21T01:43:01.481Z,4.60
2018-01-21T01:45:30.436Z,4.25
2018-01-21T01:47:59.369Z,3.53
2018-01-21T01:50:28.221Z,4.53
2018-01-21T01:52:57.152Z,5.00
2018-01-21T01:55:26.042Z,5.70
2018-01-21T01:57:55.006Z,6.70
2018-01-21T02:00:23.965Z,6.40
2018-01-21T02:02:52.897Z,8.40
2018-01-21T02:05:21.786Z,5.68
2018-01-21T02:07:52.404Z,6.82
2018-01-21T02:10:21.213Z,7.35
2018-01-21T02:12:50.045Z,8.60
2018-01-21T02:15:22.580Z,7.82
2018-01-21T02:17:51.455Z,6.95
2018-01-21T02:20:20.320Z,7.80
2018-01-21T02:22:50.300Z,8.57
2018-01-21T02:25:19.154Z,9.45
2018-01-21T02:27:47.973Z,5.95
2018-01-21T02:30:16.937Z,7.00
2018-01-21T02:32:45.904Z,6.20
2018-01-21T02:35:14.913Z,7.25
2018-01-21T02:37:43.810Z,5.90
2018-01-21T02:40:12.704Z,6.25
2018-01-21T02:42:41.608Z,7.43
2018-01-21T02:45:10.488Z,7.68
2018-01-21T02:47:39.338Z,10.80
2018-01-21T02:50:08.175Z,9.25
2018-01-21T02:52:37.201Z,7.43
2018-01-21T02:55:06.045Z,8.52
2018-01-21T02:57:35.013Z,12.50
2018-01-21T03:00:03.993Z,7.93
2018-01-21T03:02:33.034Z,7.55
2018-01-21T03:05:02.010Z,7.35
2018-01-21T03:07:30.852Z,6.55
2018-01-21T03:09:59.658Z,7.87
2018-01-21T03:12:28.582Z,8.90
2018-01-21T03:14:58.382Z,5.87
2018-01-21T03:17:27.249Z,6.95
2018-01-21T03:19:56.056Z,5.22
2018-01-21T03:22:25.071Z,5.97
2018-01-21T03:24:53.952Z,6.35
2018-01-21T03:27:22.856Z,6.35
2018-01-21T03:29:52.626Z,4.55
2018-01-21T03:32:21.470Z,5.65
2018-01-21T03:34:50.449Z,7.12
2018-01-21T03:37:19.421Z,7.05
2018-01-21T03:39:48.299Z,5.95
2018-01-21T03:42:17.260Z,4.93
2018-01-21T03:44:46.214Z,5.18
2018-01-21T03:47:15.087Z,5.87
2018-01-21T03:49:43.985Z,7.22
2018-01-21T03:52:12.888Z,9.00
2018-01-21T03:54:41.762Z,7.43
2018-01-21T03:57:10.597Z,6.57
2018-01-21T03:59:42.398Z,7.70
2018-01-21T04:02:11.296Z,7.25
2018-01-21T04:04:40.236Z,7.87
2018-01-21T04:07:09.118Z,8.95
2018-01-21T04:09:38.006Z,7.97
2018-01-21T04:12:06.906Z,6.72
2018-01-21T04:14:36.691Z,6.65
2018-01-21T04:17:05.609Z,9.10
2018-01-21T04:19:34.472Z,6.72
2018-01-21T04:22:05.117Z,21.23
2018-01-21T04:24:34.054Z,9.50
2018-01-21T04:27:02.892Z,6.85
2018-01-21T04:29:31.739Z,6.50
2018-01-21T04:32:00.565Z,10.60
2018-01-21T04:34:29.398Z,10.02
2018-01-21T04:37:00.023Z,10.20
2018-01-21T04:39:28.876Z,11.57
2018-01-21T04:41:57.804Z,7.95
2018-01-21T04:44:26.667Z,7.00
2018-01-21T04:46:55.792Z,7.72
2018-01-21T04:49:24.967Z,7.15
2018-01-21T04:51:55.133Z,8.60
2018-01-21T04:54:24.108Z,5.82
2018-01-21T04:56:53.127Z,6.85
2018-01-21T04:59:23.967Z,6.22
2018-01-21T05:01:54.600Z,6.75
2018-01-21T05:04:26.493Z,10.48
2018-01-21T05:06:55.635Z,7.00
2018-01-21T05:09:24.625Z,9.82
2018-01-21T05:11:53.725Z,9.25
2018-01-21T05:14:22.722Z,10.70
2018-01-21T05:16:51.982Z,11.65
2018-01-21T05:19:21.300Z,9.48
2018-01-21T05:21:52.423Z,11.80
2018-01-21T05:24:21.355Z,13.43
2018-01-21T05:26:51.279Z,9.85
2018-01-21T05:29:21.294Z,16.45
2018-01-21T05:31:50.280Z,15.20
2018-01-21T05:34:20.218Z,12.27
2018-01-21T05:36:50.052Z,10.93
2018-01-21T05:39:20.012Z,12.90
2018-01-21T05:41:49.895Z,14.40
2018-01-21T05:44:19.062Z,22.23
2018-01-21T05:46:48.107Z,23.85
2018-01-21T05:49:17.230Z,20.45
2018-01-21T05:51:46.323Z,13.75
2018-01-21T05:54:15.522Z,12.63
2018-01-21T05:56:46.528Z,19.87
2018-01-21T05:59:17.227Z,18.10
2018-01-21T06:01:46.462Z,17.12
2018-01-21T06:04:17.857Z,17.65
2018-01-21T06:06:47.062Z,15.35
2018-01-21T06:09:15.921Z,16.70
2018-01-21T06:11:45.871Z,17.00
2018-01-21T06:14:14.877Z,13.50
2018-01-21T06:16:50.619Z,11.10
2018-01-21T06:19:19.876Z,12.18
2018-01-21T06:21:49.020Z,10.27
2018-01-21T06:24:19.000Z,9.05
2018-01-21T06:26:49.143Z,11.68
2018-01-21T06:29:18.990Z,10.63
2018-01-21T06:31:55.145Z,10.30
2018-01-21T06:34:24.273Z,11.45
2018-01-21T06:36:54.019Z,9.05
2018-01-21T06:39:22.934Z,10.15
2018-01-21T06:41:53.026Z,16.70
2018-01-21T06:44:22.987Z,43.17
2018-01-21T06:46:53.498Z,29.55
2018-01-21T06:49:22.939Z,24.48
2018-01-21T06:51:51.896Z,19.40
2018-01-21T06:54:22.082Z,28.40
2018-01-21T06:56:51.146Z,27.08
2018-01-21T06:59:21.194Z,22.40
2018-01-21T07:01:53.004Z,49.53
2018-01-21T07:04:22.965Z,53.97
2018-01-21T07:06:53.670Z,28.42
2018-01-21T07:09:23.276Z,18.90
2018-01-21T07:11:54.380Z,19.33
2018-01-21T07:14:24.404Z,16.52
2018-01-21T07:16:53.585Z,12.85
2018-01-21T07:19:24.178Z,39.78
2018-01-21T07:21:53.779Z,63.47
2018-01-21T07:24:24.420Z,24.48
2018-01-21T07:26:55.861Z,8.70
2018-01-21T07:29:27.005Z,31.35
2018-01-21T07:31:57.065Z,18.42
2018-01-21T07:34:27.817Z,36.63
2018-01-21T07:36:56.835Z,17.55
2018-01-21T07:39:35.369Z,9.77
2018-01-21T07:42:05.293Z,10.73
2018-01-21T07:44:34.471Z,18.75
2018-01-21T07:47:05.320Z,15.55
2018-01-21T07:49:35.163Z,14.02
2018-01-21T07:52:04.118Z,17.95
2018-01-21T07:54:33.247Z,11.95
2018-01-21T07:57:03.643Z,14.80
2018-01-21T07:59:33.044Z,16.20
2018-01-21T08:02:03.524Z,51.47
2018-01-21T08:04:32.512Z,27.37
2018-01-21T08:07:01.604Z,21.17
2018-01-21T08:09:31.540Z,49.72
2018-01-21T08:12:00.707Z,41.13
2018-01-21T08:14:30.021Z,21.95
2018-01-21T08:17:00.041Z,11.02
2018-01-21T08:19:29.127Z,18.50
2018-01-21T08:21:58.239Z,16.42
2018-01-21T08:24:28.456Z,10.77
2018-01-21T08:26:58.911Z,9.88
2018-01-21T08:29:27.788Z,11.65
2018-01-21T08:31:59.386Z,20.23
2018-01-21T08:34:33.901Z,43.22
2018-01-21T08:37:08.844Z,39.33
2018-01-21T08:39:43.362Z,39.95
2018-01-21T08:42:14.871Z,33.70
2018-01-21T08:44:43.799Z,24.48
2018-01-21T08:47:13.701Z,27.00
2018-01-21T08:49:43.805Z,18.90
2018-01-21T08:52:13.770Z,17.75
2018-01-21T08:54:43.589Z,19.20
2018-01-21T08:57:17.176Z,10.32
2018-01-21T08:59:46.676Z,8.20
2018-01-21T09:02:15.720Z,8.80
2018-01-21T09:04:47.591Z,18.37
2018-01-21T09:07:17.448Z,18.37
2018-01-21T09:09:48.137Z,17.70
2018-01-21T09:12:20.762Z,15.93
2018-01-21T09:14:52.153Z,14.73
2018-01-21T09:17:22.192Z,15.15
2018-01-21T09:19:51.616Z,10.05
2018-01-21T09:22:20.822Z,22.33
2018-01-21T09:24:49.998Z,19.48
2018-01-21T09:27:19.164Z,12.02
2018-01-21T09:29:49.412Z,15.55
2018-01-21T09:32:22.039Z,17.08
2018-01-21T09:34:51.587Z,25.37
2018-01-21T09:37:20.645Z,13.07
2018-01-21T09:39:50.263Z,28.65
2018-01-21T09:42:20.662Z,21.80
2018-01-21T09:44:50.120Z,14.73
2018-01-21T09:47:22.680Z,12.90
2018-01-21T09:49:52.223Z,14.40
2018-01-21T09:52:22.101Z,12.30
2018-01-21T09:54:52.233Z,16.12
2018-01-21T09:57:22.566Z,16.12
2018-01-21T09:59:52.472Z,11.48
2018-01-21T10:02:25.847Z,11.02
2018-01-21T10:04:56.266Z,17.12
2018-01-21T10:07:25.789Z,15.25
2018-01-21T10:09:59.224Z,12.68
2018-01-21T10:12:30.115Z,16.83
2018-01-21T10:14:59.548Z,14.93
2018-01-21T10:17:29.447Z,14.02
2018-01-21T10:19:58.375Z,12.88
2018-01-21T10:22:27.582Z,36.95
2018-01-21T10:24:59.481Z,19.50
2018-01-21T10:27:28.477Z,15.65
2018-01-21T10:29:58.586Z,12.27
2018-01-21T10:32:29.225Z,15.73
2018-01-21T10:34:59.965Z,13.80
2018-01-21T10:37:29.071Z,20.27
2018-01-21T10:40:00.608Z,21.40
2018-01-21T10:42:29.636Z,19.50
2018-01-21T10:44:58.835Z,17.58
2018-01-21T10:47:29.166Z,23.23
2018-01-21T10:49:58.483Z,30.27
2018-01-21T10:52:27.701Z,19.23
2018-01-21T10:54:57.189Z,13.20
2018-01-21T10:57:26.230Z,10.45
2018-01-21T10:59:55.462Z,7.85
2018-01-21T11:02:25.927Z,34.20
2018-01-21T11:04:55.103Z,31.70
2018-01-21T11:07:24.973Z,26.47
2018-01-21T11:09:54.937Z,34.10
2018-01-21T11:12:24.285Z,11.07
2018-01-21T11:14:53.538Z,8.57
2018-01-21T11:17:25.423Z,10.50
2018-01-21T11:19:55.666Z,15.52
2018-01-21T11:22:24.863Z,9.20
2018-01-21T11:24:55.153Z,18.10
2018-01-21T11:27:24.222Z,14.33
2018-01-21T11:29:53.350Z,23.80
2018-01-21T11:32:22.484Z,19.30
2018-01-21T11:34:51.713Z,17.50
2018-01-21T11:37:20.948Z,26.63
2018-01-21T11:39:50.741Z,21.10
2018-01-21T11:42:20.290Z,20.15
2018-01-21T11:44:50.292Z,31.30
2018-01-21T11:47:20.108Z,20.70
2018-01-21T11:49:50.074Z,12.60
2018-01-21T11:52:19.157Z,9.30
2018-01-21T11:54:49.097Z,9.17
2018-01-21T11:57:17.959Z,12.13
2018-01-21T11:59:47.841Z,8.07
2018-01-21T12:02:19.744Z,7.27
2018-01-21T12:04:48.782Z,5.65
2018-01-21T12:07:18.036Z,5.80
2018-01-21T12:09:48.445Z,5.10
2018-01-21T12:12:17.769Z,4.60
2018-01-21T12:14:46.800Z,7.40
2018-01-21T12:17:16.926Z,9.50
2018-01-21T12:19:46.333Z,21.93
2018-01-21T12:22:16.537Z,14.07
2018-01-21T12:24:46.319Z,16.30
2018-01-21T12:27:17.313Z,18.07
2018-01-21T12:29:46.207Z,22.80
2018-01-21T12:32:15.839Z,15.07
2018-01-21T12:34:44.856Z,6.40
2018-01-21T12:37:15.971Z,7.33
2018-01-21T12:39:45.990Z,7.20
2018-01-21T12:42:16.555Z,8.17
2018-01-21T12:44:45.592Z,6.77
2018-01-21T12:47:14.739Z,6.83
2018-01-21T12:49:43.968Z,5.60
2018-01-21T12:52:12.855Z,5.07
2018-01-21T12:54:43.722Z,8.07
2018-01-21T12:57:14.667Z,11.30
2018-01-21T12:59:43.648Z,7.80
2018-01-21T13:02:13.161Z,7.10
2018-01-21T13:04:42.124Z,14.70
2018-01-21T13:07:11.482Z,11.77
2018-01-21T13:09:41.328Z,34.93
2018-01-21T13:12:10.551Z,24.13
2018-01-21T13:14:39.779Z,14.73
2018-01-21T13:17:09.016Z,15.13
2018-01-21T13:19:38.145Z,18.17
2018-01-21T13:22:07.311Z,19.23
2018-01-21T13:24:38.559Z,10.73
2018-01-21T13:27:07.492Z,18.10
2018-01-21T13:29:36.541Z,12.30
2018-01-21T13:32:06.504Z,11.20
2018-01-21T13:34:35.537Z,19.03
2018-01-21T13:37:04.918Z,17.10
2018-01-21T13:39:34.899Z,11.67
2018-01-21T13:42:04.209Z,10.30
2018-01-21T13:44:33.178Z,12.77
2018-01-21T13:47:04.920Z,12.60
2018-01-21T13:49:33.939Z,12.07
2018-01-21T13:52:03.888Z,9.80
2018-01-21T13:54:34.012Z,9.60
2018-01-21T13:57:03.394Z,8.00
2018-01-21T13:59:32.545Z,11.83
2018-01-21T14:02:04.006Z,6.40
2018-01-21T14:04:34.679Z,7.73
2018-01-21T14:07:04.656Z,13.33
2018-01-21T14:09:33.691Z,10.80
2018-01-21T14:12:02.869Z,14.90
2018-01-21T14:14:31.982Z,11.33
2018-01-21T14:17:00.971Z,14.13
2018-01-21T14:19:29.984Z,8.70
2018-01-21T14:21:59.086Z,6.43
2018-01-21T14:24:28.493Z,4.73
2018-01-21T14:26:57.358Z,6.83
2018-01-21T14:29:26.394Z,8.30
2018-01-21T14:31:55.577Z,6.40
2018-01-21T14:34:27.003Z,6.13
2018-01-21T14:36:56.067Z,6.73
2018-01-21T14:39:25.370Z,6.30
2018-01-21T14:41:54.668Z,6.20
2018-01-21T14:44:24.671Z,10.70
2018-01-21T14:46:54.511Z,5.60
2018-01-21T14:49:23.625Z,8.47
2018-01-21T14:51:52.897Z,11.67
2018-01-21T14:54:23.068Z,7.90
2018-01-21T14:56:52.240Z,8.07
2018-01-21T14:59:21.426Z,6.13
2018-01-21T15:01:50.779Z,6.87
2018-01-21T15:04:19.921Z,11.50
2018-01-21T15:06:53.212Z,8.27
2018-01-21T15:09:23.114Z,8.87
2018-01-21T15:11:53.096Z,4.90
2018-01-21T15:14:23.911Z,9.43
2018-01-21T15:16:53.243Z,33.27
2018-01-21T15:19:23.288Z,41.20
2018-01-21T15:21:53.273Z,52.70
2018-01-21T15:24:22.291Z,39.20
2018-01-21T15:26:52.343Z,64.30
2018-01-21T15:29:24.865Z,45.90
2018-01-21T15:31:54.690Z,33.37
2018-01-21T15:34:26.291Z,24.30
2018-01-21T15:36:58.400Z,26.33
2018-01-21T15:39:28.005Z,50.50
2018-01-21T15:41:57.293Z,27.30
2018-01-21T15:44:26.379Z,23.60
2018-01-21T15:46:56.768Z,54.70
2018-01-21T15:49:27.689Z,39.13
2018-01-21T15:51:56.911Z,44.03
2018-01-21T15:54:26.228Z,54.20
2018-01-21T15:56:56.396Z,66.90
2018-01-21T15:59:26.769Z,50.20
2018-01-21T16:01:57.645Z,38.43
2018-01-21T16:04:27.145Z,42.70
2018-01-21T16:06:57.178Z,43.13
2018-01-21T16:09:26.845Z,52.67
2018-01-21T16:11:56.039Z,32.93
2018-01-21T16:14:25.626Z,24.60
2018-01-21T16:16:58.789Z,24.90
2018-01-21T16:19:28.921Z,25.47
2018-01-21T16:21:58.161Z,29.67
2018-01-21T16:24:28.105Z,29.30
2018-01-21T16:26:57.681Z,47.47
2018-01-21T16:29:27.504Z,22.73
2018-01-21T16:32:00.037Z,38.57
2018-01-21T16:34:30.958Z,22.03
2018-01-21T16:37:01.332Z,20.17
2018-01-21T16:39:30.592Z,24.37
2018-01-21T16:42:00.504Z,19.23
2018-01-21T16:44:30.340Z,13.60
2018-01-21T16:47:00.436Z,18.13
2018-01-21T16:49:33.907Z,14.70
2018-01-21T16:52:02.846Z,18.20
2018-01-21T16:54:31.834Z,20.33
2018-01-21T16:57:02.616Z,22.30
2018-01-21T16:59:32.078Z,25.07
2018-01-21T17:02:01.455Z,22.00
2018-01-21T17:04:30.892Z,22.97
2018-01-21T17:06:59.774Z,25.50
2018-01-21T17:09:28.803Z,27.70
2018-01-21T17:11:59.766Z,27.60
2018-01-21T17:14:29.255Z,26.50
2018-01-21T17:16:58.756Z,27.23
2018-01-21T17:19:33.161Z,35.90
2018-01-21T17:22:02.399Z,33.13
2018-01-21T17:24:31.980Z,32.13
2018-01-21T17:27:07.997Z,36.80
2018-01-21T17:29:37.549Z,32.50
2018-01-21T17:32:06.941Z,30.30
2018-01-21T17:34:37.449Z,32.80
2018-01-21T17:37:06.569Z,27.23
2018-01-21T17:39:37.585Z,37.93
2018-01-21T17:42:09.946Z,41.63
2018-01-21T17:44:39.299Z,40.93
2018-01-21T17:47:08.392Z,37.20
2018-01-21T17:49:40.114Z,28.63
2018-01-21T17:52:10.406Z,28.60
2018-01-21T17:54:40.142Z,28.90
2018-01-21T17:57:10.956Z,37.63
2018-01-21T17:59:41.440Z,28.23
2018-01-21T18:02:10.656Z,35.60
2018-01-21T18:04:40.690Z,52.27
2018-01-21T18:07:10.206Z,74.43
2018-01-21T18:09:39.812Z,59.53
2018-01-21T18:12:09.905Z,58.87
2018-01-21T18:14:40.065Z,39.10
2018-01-21T18:17:12.480Z,44.43
2018-01-21T18:19:42.212Z,36.87
2018-01-21T18:22:11.868Z,52.53
2018-01-21T18:24:41.544Z,45.70
2018-01-21T18:27:14.811Z,35.37
2018-01-21T18:29:46.446Z,33.67
2018-01-21T18:32:16.338Z,34.67
2018-01-21T18:34:45.759Z,43.00
2018-01-21T18:37:17.286Z,39.00
2018-01-21T18:39:47.455Z,48.30
2018-01-21T18:42:16.795Z,29.43
2018-01-21T18:44:46.258Z,33.30
2018-01-21T18:47:15.742Z,27.10
2018-01-21T18:49:45.336Z,25.87
2018-01-21T18:52:15.213Z,31.67
2018-01-21T18:54:44.571Z,28.90
2018-01-21T18:57:13.999Z,29.20
2018-01-21T18:59:46.341Z,29.27
2018-01-21T19:02:15.806Z,35.07
2018-01-21T19:04:45.226Z,25.87
2018-01-21T19:07:15.474Z,45.80
2018-01-21T19:09:45.148Z,33.90
2018-01-21T19:12:17.570Z,31.10
2018-01-21T19:14:47.247Z,28.60
2018-01-21T19:17:17.191Z,28.10
2018-01-21T19:19:47.320Z,27.47
2018-01-21T19:22:17.646Z,34.60
2018-01-21T19:24:47.726Z,29.47
2018-01-21T19:27:17.148Z,26.63
2018-01-21T19:29:47.957Z,31.47
2018-01-21T19:32:19.133Z,42.73
2018-01-21T19:34:48.166Z,48.37
2018-01-21T19:37:17.277Z,47.20
2018-01-21T19:40:03.186Z,30.70
2018-01-21T19:42:49.055Z,33.93
2018-01-21T19:45:18.661Z,53.33
2018-01-21T19:47:48.082Z,27.53
2018-01-21T19:50:17.687Z,32.67
2018-01-21T19:52:48.111Z,41.13
2018-01-21T19:55:17.418Z,41.27
2018-01-21T19:57:46.628Z,35.67
2018-01-21T20:00:17.220Z,32.00
2018-01-21T20:02:48.047Z,50.03
2018-01-21T20:05:17.936Z,38.73
2018-01-21T20:07:47.588Z,41.53
2018-01-21T20:10:17.146Z,47.10
2018-01-21T20:12:55.371Z,35.03
2018-01-21T20:15:25.118Z,54.47
2018-01-21T20:17:54.599Z,52.83
2018-01-21T20:20:24.087Z,53.17
2018-01-21T20:22:53.253Z,61.23
2018-01-21T20:25:22.473Z,26.00
2018-01-21T20:27:59.080Z,22.20
2018-01-21T20:30:28.417Z,27.40
2018-01-21T20:32:57.830Z,25.77
2018-01-21T20:35:28.196Z,21.17
2018-01-21T20:37:58.518Z,29.37
2018-01-21T20:40:27.593Z,32.13
2018-01-21T20:42:57.496Z,40.27
2018-01-21T20:45:28.115Z,55.50
2018-01-21T20:47:58.128Z,45.37
2018-01-21T20:50:28.297Z,58.10
2018-01-21T20:52:58.223Z,119.77
2018-01-21T20:55:27.319Z,63.00
2018-01-21T20:57:56.822Z,59.90
2018-01-21T21:00:26.388Z,70.33
2018-01-21T21:02:56.444Z,35.80
2018-01-21T21:05:27.790Z,42.83
2018-01-21T21:07:56.950Z,32.30
2018-01-21T21:10:27.125Z,35.67
2018-01-21T21:12:56.735Z,28.50
2018-01-21T21:15:27.254Z,27.23
2018-01-21T21:17:56.701Z,36.30
2018-01-21T21:20:26.622Z,25.70
2018-01-21T21:22:56.939Z,31.27
2018-01-21T21:25:26.328Z,25.73
2018-01-21T21:27:56.049Z,24.50
2018-01-21T21:30:26.457Z,32.80
2018-01-21T21:32:57.286Z,35.63
2018-01-21T21:35:30.262Z,26.10
2018-01-21T21:38:00.228Z,40.40
2018-01-21T21:40:30.378Z,54.27
2018-01-21T21:42:59.848Z,26.57
2018-01-21T21:45:30.186Z,33.67
2018-01-21T21:47:59.512Z,33.63
2018-01-21T21:50:29.106Z,23.03
2018-01-21T21:52:58.141Z,75.50
2018-01-21T21:55:27.328Z,56.63
2018-01-21T21:57:57.848Z,137.87
2018-01-21T22:00:27.373Z,195.90
2018-01-21T22:02:56.566Z,136.60
2018-01-21T22:05:25.771Z,83.67
2018-01-21T22:07:55.949Z,179.53
2018-01-21T22:10:25.042Z,225.63
2018-01-21T22:12:54.181Z,240.17
2018-01-21T22:15:25.754Z,318.97
2018-01-21T22:17:55.296Z,199.73
2018-01-21T22:20:24.930Z,307.07
2018-01-21T22:22:54.362Z,356.03
2018-01-21T22:25:24.014Z,35.33
2018-01-21T22:27:53.427Z,267.53
2018-01-21T22:30:23.007Z,99.90
2018-01-21T22:32:52.640Z,202.43
2018-01-21T22:35:22.079Z,67.63
2018-01-21T22:37:51.780Z,270.23
2018-01-21T22:40:22.059Z,301.37
2018-01-21T22:42:51.796Z,105.33
2018-01-21T22:45:22.949Z,110.37
2018-01-21T22:47:52.610Z,180.03
2018-01-21T22:50:22.433Z,239.60
2018-01-21T22:52:51.560Z,241.30
2018-01-21T22:55:21.926Z,108.37
2018-01-21T22:57:52.210Z,69.13
2018-01-21T23:00:22.305Z,83.30
2018-01-21T23:02:51.648Z,77.70
2018-01-21T23:05:21.316Z,67.07
2018-01-21T23:07:51.343Z,41.13
2018-01-21T23:10:20.577Z,29.57
2018-01-21T23:12:49.734Z,29.03
2018-01-21T23:15:19.316Z,22.60
2018-01-21T23:17:50.225Z,17.63
2018-01-21T23:20:31.282Z,12.43
2018-01-21T23:23:00.204Z,16.17
2018-01-21T23:25:29.161Z,12.77
2018-01-21T23:27:58.806Z,49.77
2018-01-21T23:30:27.764Z,92.20
2018-01-21T23:32:56.891Z,72.90
2018-01-21T23:35:26.259Z,361.83
2018-01-21T23:37:55.473Z,579.40
2018-01-21T23:40:25.474Z,469.07
2018-01-21T23:42:58.026Z,569.87
2018-01-21T23:45:27.353Z,701.90
2018-01-21T23:47:56.351Z,142.87
2018-01-21T23:50:27.637Z,197.47
2018-01-21T23:52:58.678Z,381.13
2018-01-21T23:55:28.058Z,560.97
2018-01-21T23:57:58.264Z,524.17
